Time;durP1;ratioP1;P1;durP2;ratioP2;P2;SDS_P1;SDS_P2;PMS_P1;PMS_P2;Temp;Humidity;BMP_temperature;BMP_pressure;BME280_temperature;BME280_humidity;BME280_pressure;Samples;Min_cycle;Max_cycle;Signal;HPM_P1;HPM_P2
2023/05/10 00:01:33;;;;;;;3.40;2.50;;;;;;;14.88;51.51;102247.77;110522;1275;22274;-50
2023/05/10 00:04:00;;;;;;;6.00;3.10;;;;;;;14.87;51.30;102245.33;110511;1275;22243;-50
2023/05/10 00:06:28;;;;;;;5.00;3.00;;;;;;;14.85;51.20;102243.61;110431;1273;22452;-50
2023/05/10 00:08:55;;;;;;;4.40;2.80;;;;;;;14.84;51.26;102243.11;110345;1274;22172;-50
2023/05/10 00:11:22;;;;;;;3.90;2.70;;;;;;;14.83;51.21;102243.98;110241;1274;22405;-50
2023/05/10 00:13:49;;;;;;;3.80;2.60;;;;;;;14.82;51.21;102243.83;110424;1275;22159;-50
2023/05/10 00:16:16;;;;;;;2.90;2.40;;;;;;;14.81;51.27;102245.59;110242;1272;22131;-50
2023/05/10 00:18:43;;;;;;;3.70;2.60;;;;;;;14.82;51.28;102242.80;110375;1276;22504;-50
2023/05/10 00:21:10;;;;;;;2.70;2.50;;;;;;;14.81;51.20;102240.35;110588;1268;22290;-50
2023/05/10 00:23:37;;;;;;;2.30;2.10;;;;;;;14.82;51.24;102240.52;110299;1273;22320;-50
2023/05/10 00:26:04;;;;;;;3.70;2.50;;;;;;;14.82;50.84;102240.34;110433;1269;22878;-50
2023/05/10 00:28:31;;;;;;;5.00;3.00;;;;;;;14.82;50.70;102244.86;109444;1275;1002166;-50
2023/05/10 00:30:58;;;;;;;5.40;2.80;;;;;;;14.81;50.69;102242.45;110425;1272;22412;-50
2023/05/10 00:33:25;;;;;;;2.80;2.60;;;;;;;14.79;50.69;102244.05;110232;1272;23106;-49
2023/05/10 00:35:52;;;;;;;2.30;2.10;;;;;;;14.79;50.73;102240.56;110401;1272;22414;-50
2023/05/10 00:38:19;;;;;;;3.40;2.70;;;;;;;14.77;50.74;102242.67;110485;1272;22275;-50
2023/05/10 00:40:46;;;;;;;3.40;2.90;;;;;;;14.74;50.75;102241.52;110632;1267;22331;-49
2023/05/10 00:43:19;;;;;;;4.00;2.70;;;;;;;14.73;50.79;102244.33;110438;1274;22366;-50
2023/05/10 00:45:47;;;;;;;4.90;2.90;;;;;;;14.72;50.90;102242.75;110485;1272;22867;-50
2023/05/10 00:48:14;;;;;;;4.20;2.90;;;;;;;14.73;50.99;102240.66;110554;1270;22371;-50
2023/05/10 00:50:41;;;;;;;5.40;3.20;;;;;;;14.75;50.84;102240.80;110512;1272;22480;-50
2023/05/10 00:53:08;;;;;;;4.00;3.30;;;;;;;14.78;50.75;102240.41;110466;1269;22455;-49
2023/05/10 00:55:35;;;;;;;5.70;3.90;;;;;;;14.81;50.72;102241.23;110567;1268;22376;-49
2023/05/10 00:58:03;;;;;;;6.40;4.10;;;;;;;14.83;50.76;102238.41;110181;1275;22388;-50
2023/05/10 01:00:30;;;;;;;8.00;4.70;;;;;;;14.84;50.73;102237.86;110409;1275;22430;-50
2023/05/10 01:02:57;;;;;;;6.70;4.30;;;;;;;14.85;50.67;102241.34;110374;1267;22404;-50
2023/05/10 01:05:24;;;;;;;7.00;5.10;;;;;;;14.85;50.82;102240.98;110540;1269;22395;-49
2023/05/10 01:07:51;;;;;;;7.00;4.10;;;;;;;14.84;50.82;102239.80;110448;1270;22129;-50
2023/05/10 01:10:18;;;;;;;10.50;4.10;;;;;;;14.82;50.64;102240.50;110403;1270;22191;-50
2023/05/10 01:12:46;;;;;;;9.40;5.00;;;;;;;14.79;50.55;102236.20;110396;1271;22329;-49
2023/05/10 01:15:14;;;;;;;8.50;5.60;;;;;;;14.73;50.88;102239.07;110578;1268;22329;-50
2023/05/10 01:17:42;;;;;;;9.40;5.60;;;;;;;14.70;51.03;102234.92;110572;1266;22358;-50
2023/05/10 01:20:09;;;;;;;9.90;5.30;;;;;;;14.71;51.11;102239.64;110454;1270;23052;-49
2023/05/10 01:22:59;;;;;;;8.60;4.90;;;;;;;14.72;51.02;102236.64;110398;1270;23022;-50
2023/05/10 01:25:32;;;;;;;7.50;5.40;;;;;;;14.75;50.89;102235.20;110514;1269;22137;-49
2023/05/10 01:28:14;;;;;;;7.80;5.10;;;;;;;14.76;50.86;102236.23;110492;1269;22379;-49
2023/05/10 01:30:53;;;;;;;8.10;5.00;;;;;;;14.77;50.76;102234.30;110490;1276;22136;-49
2023/05/10 01:33:25;;;;;;;9.00;5.10;;;;;;;14.77;50.76;102231.52;110556;1275;22904;-49
2023/05/10 01:35:57;;;;;;;7.50;5.00;;;;;;;14.76;50.86;102229.77;110414;1270;23065;-50
2023/05/10 01:39:03;;;;;;;10.80;4.70;;;;;;;14.75;50.92;102231.02;110110;1275;22132;-49
2023/05/10 01:42:09;;;;;;;7.60;4.60;;;;;;;14.74;51.20;102230.16;110033;1280;22399;-49
2023/05/10 01:44:57;;;;;;;9.50;5.60;;;;;;;14.72;51.14;102227.73;109278;1278;1002686;-50
2023/05/10 01:47:43;;;;;;;9.10;5.60;;;;;;;14.73;51.25;102229.65;110088;1273;22354;-50
2023/05/10 01:50:19;;;;;;;9.20;6.50;;;;;;;14.73;51.33;102225.62;109991;1276;22313;-50
2023/05/10 01:52:50;;;;;;;15.70;7.70;;;;;;;14.75;51.60;102221.05;109964;1276;22377;-50
2023/05/10 01:55:18;;;;;;;11.20;7.90;;;;;;;14.77;51.73;102221.90;109915;1280;22181;-50
2023/05/10 01:57:46;;;;;;;12.80;8.30;;;;;;;14.78;51.75;102218.02;109590;1267;1002372;-50
2023/05/10 02:00:13;;;;;;;13.00;7.90;;;;;;;14.78;51.70;102220.13;109920;1281;22155;-49
2023/05/10 02:02:43;;;;;;;11.40;8.50;;;;;;;14.77;51.89;102218.91;109991;1280;22381;-49
2023/05/10 02:05:10;;;;;;;15.20;7.80;;;;;;;14.77;52.07;102220.33;109954;1281;23166;-49
2023/05/10 02:07:37;;;;;;;14.30;7.90;;;;;;;14.76;52.27;102220.33;109971;1278;22188;-50
2023/05/10 02:10:07;;;;;;;10.50;7.50;;;;;;;14.76;52.44;102218.58;109263;1275;1003098;-49
2023/05/10 02:12:45;;;;;;;13.10;7.20;;;;;;;14.77;52.77;102220.66;109891;1279;23052;-50
2023/05/10 02:15:15;;;;;;;14.70;7.20;;;;;;;14.79;53.14;102217.32;109810;1280;22274;-50
2023/05/10 02:17:43;;;;;;;13.30;7.00;;;;;;;14.80;53.52;102219.40;109863;1278;22387;-49
2023/05/10 02:20:10;;;;;;;17.70;7.50;;;;;;;14.82;53.76;102216.92;110016;1273;22197;-50
2023/05/10 02:22:37;;;;;;;8.60;6.30;;;;;;;14.85;54.01;102216.70;109959;1276;22321;-50
2023/05/10 02:25:05;;;;;;;9.20;6.10;;;;;;;14.88;54.22;102215.95;109810;1272;331483;-50
2023/05/10 02:27:32;;;;;;;9.40;5.60;;;;;;;14.90;54.44;102215.92;109895;1277;22829;-50
2023/05/10 02:29:59;;;;;;;8.20;5.60;;;;;;;14.92;54.68;102216.92;109807;1279;22220;-50
2023/05/10 02:32:26;;;;;;;6.70;5.00;;;;;;;14.95;54.84;102220.02;109759;1280;22171;-50
2023/05/10 02:34:53;;;;;;;9.10;5.50;;;;;;;14.99;54.95;102219.10;109713;1280;22657;-50
2023/05/10 02:37:20;;;;;;;7.10;5.00;;;;;;;15.01;55.26;102220.98;109818;1283;22148;-50
2023/05/10 02:39:48;;;;;;;8.30;5.20;;;;;;;15.04;55.40;102221.10;109860;1283;22145;-52
2023/05/10 02:42:19;;;;;;;8.10;5.20;;;;;;;15.10;55.58;102220.30;109826;1283;22982;-50
2023/05/10 02:44:47;;;;;;;7.30;5.80;;;;;;;15.13;55.64;102223.05;109968;1281;22414;-50
2023/05/10 02:47:14;;;;;;;7.00;5.20;;;;;;;15.16;55.78;102224.55;109675;1281;22163;-51
2023/05/10 02:49:42;;;;;;;6.90;5.50;;;;;;;15.19;55.84;102226.23;110028;1274;23088;-50
2023/05/10 02:52:09;;;;;;;7.60;5.20;;;;;;;15.21;55.80;102226.38;110114;1273;22209;-50
2023/05/10 02:54:45;;;;;;;8.40;6.20;;;;;;;15.24;55.64;102227.20;110002;1274;22327;-51
2023/05/10 02:57:17;;;;;;;9.30;5.10;;;;;;;15.27;55.56;102227.69;110013;1276;22909;-50
2023/05/10 02:59:45;;;;;;;7.60;5.20;;;;;;;15.30;55.45;102228.50;109974;1279;23083;-50
2023/05/10 03:02:12;;;;;;;5.70;4.80;;;;;;;15.32;55.27;102231.43;110067;1274;22321;-50
2023/05/10 03:04:39;;;;;;;6.50;4.50;;;;;;;15.33;55.23;102234.38;110288;1272;22156;-50
2023/05/10 03:07:06;;;;;;;5.50;4.70;;;;;;;15.34;55.31;102231.23;110380;1274;22154;-50
2023/05/10 03:09:34;;;;;;;6.70;4.70;;;;;;;15.36;55.23;102229.97;110394;1274;22311;-50
2023/05/10 03:12:01;;;;;;;6.20;4.20;;;;;;;15.36;55.26;102231.02;110391;1267;22386;-50
2023/05/10 03:14:32;;;;;;;4.80;4.30;;;;;;;15.36;55.25;102232.77;110550;1270;22376;-52
2023/05/10 03:17:04;;;;;;;7.10;4.40;;;;;;;15.35;55.15;102232.27;110508;1275;22376;-51
2023/05/10 03:19:56;;;;;;;6.00;4.60;;;;;;;15.36;55.10;102233.47;110518;1268;22895;-50
2023/05/10 03:22:30;;;;;;;5.80;4.80;;;;;;;15.37;55.14;102236.96;110251;1275;22580;-50
2023/05/10 03:24:57;;;;;;;7.00;5.10;;;;;;;15.35;55.26;102241.86;110188;1273;22298;-50
2023/05/10 03:27:27;;;;;;;6.40;5.50;;;;;;;15.37;55.39;102244.98;110024;1275;22836;-50
2023/05/10 03:29:54;;;;;;;9.00;6.00;;;;;;;15.38;55.38;102245.85;110077;1273;22319;-51
2023/05/10 03:32:22;;;;;;;8.60;5.80;;;;;;;15.33;55.64;102243.66;110112;1271;22149;-50
2023/05/10 03:34:49;;;;;;;11.00;6.40;;;;;;;15.33;55.95;102241.21;110061;1272;22841;-50
2023/05/10 03:37:16;;;;;;;11.40;6.30;;;;;;;15.35;56.08;102239.97;110049;1279;22228;-51
2023/05/10 03:39:43;;;;;;;9.30;6.20;;;;;;;15.37;56.34;102241.15;110113;1273;22340;-50
2023/05/10 03:42:11;;;;;;;8.80;5.70;;;;;;;15.40;56.49;102237.77;110029;1273;22358;-50
2023/05/10 03:44:39;;;;;;;7.80;5.20;;;;;;;15.47;56.50;102238.19;109898;1276;22156;-50
2023/05/10 03:47:06;;;;;;;7.50;5.00;;;;;;;15.53;56.30;102239.65;110130;1273;22953;-51
2023/05/10 03:49:33;;;;;;;5.80;5.20;;;;;;;15.57;56.15;102245.70;109896;1276;22833;-50
2023/05/10 03:52:01;;;;;;;8.50;5.20;;;;;;;15.58;56.14;102248.29;109813;1283;22166;-50
2023/05/10 03:54:28;;;;;;;7.80;5.50;;;;;;;15.62;56.19;102251.04;109878;1277;22837;-50
2023/05/10 03:56:55;;;;;;;6.90;4.60;;;;;;;15.66;56.24;102250.42;109871;1277;23060;-50
2023/05/10 03:59:22;;;;;;;7.10;3.30;;;;;;;15.72;56.02;102252.23;109973;1274;23170;-50
2023/05/10 04:01:50;;;;;;;3.90;3.10;;;;;;;15.77;55.41;102254.22;109939;1273;22371;-50
2023/05/10 04:04:18;;;;;;;4.60;3.20;;;;;;;15.79;55.00;102256.81;110051;1279;22390;-50
2023/05/10 04:06:47;;;;;;;3.60;3.30;;;;;;;15.80;54.75;102257.16;110017;1275;22163;-50
2023/05/10 04:09:14;;;;;;;3.70;3.30;;;;;;;15.79;54.52;102257.00;109999;1275;22172;-50
2023/05/10 04:11:41;;;;;;;3.60;3.10;;;;;;;15.78;54.34;102259.30;110040;1272;22351;-50
2023/05/10 04:14:08;;;;;;;5.50;3.40;;;;;;;15.78;54.16;102259.65;110175;1278;23194;-50
2023/05/10 04:16:35;;;;;;;5.30;3.10;;;;;;;15.79;53.93;102260.14;110255;1272;22388;-50
2023/05/10 04:19:03;;;;;;;3.30;2.90;;;;;;;15.80;53.59;102258.38;110036;1278;22483;-50
2023/05/10 04:21:30;;;;;;;4.40;2.90;;;;;;;15.84;53.20;102258.12;110471;1268;22819;-50
2023/05/10 04:23:57;;;;;;;3.30;2.70;;;;;;;15.88;53.10;102257.33;110498;1268;22148;-50
2023/05/10 04:26:25;;;;;;;4.00;3.10;;;;;;;15.96;52.58;102255.42;110525;1268;22465;-51
2023/05/10 04:28:52;;;;;;;3.20;2.50;;;;;;;16.00;52.43;102258.84;110496;1268;22993;-50
2023/05/10 04:31:19;;;;;;;4.90;3.30;;;;;;;16.04;52.12;102259.46;110289;1272;22359;-49
2023/05/10 04:33:46;;;;;;;4.10;3.00;;;;;;;16.10;52.07;102257.23;110391;1269;22406;-49
2023/05/10 04:36:13;;;;;;;3.50;2.90;;;;;;;16.18;51.87;102261.81;110502;1268;22995;-49
2023/05/10 04:38:40;;;;;;;3.10;2.80;;;;;;;16.24;51.19;102255.71;110451;1275;22279;-49
2023/05/10 04:41:08;;;;;;;4.00;2.20;;;;;;;16.29;50.75;102256.65;110267;1272;22847;-48
2023/05/10 04:43:35;;;;;;;3.90;2.60;;;;;;;16.35;49.80;102254.80;110436;1268;22155;-49
2023/05/10 04:46:02;;;;;;;3.30;2.70;;;;;;;16.40;49.54;102260.64;110414;1268;22371;-48
2023/05/10 04:48:29;;;;;;;3.00;2.70;;;;;;;16.47;49.21;102259.41;110385;1269;22378;-48
2023/05/10 04:50:56;;;;;;;3.20;2.90;;;;;;;16.53;48.86;102263.88;110125;1273;22342;-48
2023/05/10 04:53:23;;;;;;;3.80;2.40;;;;;;;16.60;48.71;102262.85;110456;1270;22263;-49
2023/05/10 04:55:50;;;;;;;3.90;2.80;;;;;;;16.67;48.30;102260.57;110506;1272;22347;-49
2023/05/10 04:58:17;;;;;;;3.10;2.80;;;;;;;16.75;48.33;102259.15;110421;1269;22233;-48
2023/05/10 05:00:44;;;;;;;3.80;2.60;;;;;;;16.82;48.12;102258.62;110495;1268;22856;-49
2023/05/10 05:03:11;;;;;;;3.80;2.40;;;;;;;16.85;48.17;102262.41;110492;1268;23330;-48
2023/05/10 05:05:38;;;;;;;3.70;2.40;;;;;;;16.92;47.98;102261.54;110494;1270;22281;-50
2023/05/10 05:08:05;;;;;;;2.50;2.30;;;;;;;16.98;47.54;102265.94;110374;1270;22295;-49
2023/05/10 05:10:32;;;;;;;3.30;2.40;;;;;;;17.04;47.65;102265.30;110495;1269;22358;-49
2023/05/10 05:12:59;;;;;;;3.10;2.20;;;;;;;17.12;47.75;102260.18;110516;1268;22640;-51
2023/05/10 05:15:27;;;;;;;2.90;2.40;;;;;;;17.23;47.77;102261.83;110502;1268;23141;-49
2023/05/10 05:17:54;;;;;;;4.70;2.60;;;;;;;17.31;47.56;102260.20;110513;1268;22322;-48
2023/05/10 05:20:21;;;;;;;4.20;2.60;;;;;;;17.36;47.31;102261.30;110414;1275;22320;-51
2023/05/10 05:22:48;;;;;;;2.70;2.30;;;;;;;17.43;47.42;102261.66;110426;1268;22826;-50
2023/05/10 05:25:15;;;;;;;3.10;2.60;;;;;;;17.56;47.44;102262.04;110348;1268;22308;-51
2023/05/10 05:27:42;;;;;;;3.70;2.60;;;;;;;17.76;46.88;102260.78;110542;1274;22406;-51
2023/05/10 05:30:10;;;;;;;3.00;2.60;;;;;;;18.09;46.31;102261.06;110498;1274;22295;-50
2023/05/10 05:32:36;;;;;;;4.10;2.40;;;;;;;18.48;45.55;102263.27;110429;1269;22139;-50
2023/05/10 05:35:04;;;;;;;3.50;2.30;;;;;;;18.84;44.68;102261.59;109707;1268;1003235;-49
2023/05/10 05:37:31;;;;;;;4.10;2.70;;;;;;;19.21;44.30;102260.19;110420;1268;22211;-49
2023/05/10 05:40:00;;;;;;;2.90;2.30;;;;;;;19.67;43.19;102262.81;110417;1267;22214;-49
2023/05/10 05:42:27;;;;;;;4.70;2.50;;;;;;;20.17;41.95;102265.39;110133;1276;22143;-49
2023/05/10 05:44:54;;;;;;;5.00;2.40;;;;;;;20.64;40.43;102262.14;110335;1270;22422;-51
2023/05/10 05:47:22;;;;;;;3.50;2.20;;;;;;;21.07;39.23;102264.48;110525;1268;22183;-50
2023/05/10 05:49:49;;;;;;;4.50;2.70;;;;;;;21.45;38.12;102260.23;110530;1274;22104;-49
2023/05/10 05:52:16;;;;;;;2.60;2.10;;;;;;;21.80;37.15;102262.53;110516;1274;22797;-50
2023/05/10 05:54:43;;;;;;;3.30;2.30;;;;;;;22.13;36.37;102264.27;110505;1274;22427;-49
2023/05/10 05:57:10;;;;;;;2.10;1.70;;;;;;;22.46;34.91;102262.68;110512;1274;22965;-50
2023/05/10 05:59:41;;;;;;;2.00;1.80;;;;;;;22.77;33.36;102258.92;110509;1269;22370;-49
2023/05/10 06:02:08;;;;;;;2.60;1.90;;;;;;;22.97;32.64;102259.49;110531;1274;22130;-50
2023/05/10 06:04:36;;;;;;;2.00;1.80;;;;;;;23.09;32.29;102260.49;110150;1274;22135;-50
2023/05/10 06:07:03;;;;;;;2.70;1.80;;;;;;;23.09;31.75;102255.70;110497;1267;22529;-50
2023/05/10 06:09:30;;;;;;;2.30;1.80;;;;;;;23.10;31.66;102258.66;110507;1267;22957;-50
2023/05/10 06:11:57;;;;;;;3.10;1.90;;;;;;;23.11;31.25;102257.91;110531;1268;22394;-49
2023/05/10 06:14:24;;;;;;;3.90;1.60;;;;;;;23.04;30.98;102256.84;110447;1269;22341;-50
2023/05/10 06:16:51;;;;;;;2.20;1.60;;;;;;;22.88;30.28;102260.14;110528;1268;22345;-50
2023/05/10 06:19:18;;;;;;;1.60;1.40;;;;;;;22.61;29.93;102260.73;110472;1275;22228;-50
2023/05/10 06:21:45;;;;;;;3.40;1.90;;;;;;;22.30;29.20;102258.48;110105;1274;23131;-49
2023/05/10 06:24:12;;;;;;;2.20;1.40;;;;;;;21.95;28.24;102260.65;110536;1274;23027;-49
2023/05/10 06:26:39;;;;;;;2.00;1.40;;;;;;;21.63;28.67;102262.05;110424;1275;22279;-49
2023/05/10 06:29:06;;;;;;;2.20;1.70;;;;;;;21.40;28.96;102257.59;110456;1274;22312;-49
2023/05/10 06:31:33;;;;;;;2.00;1.40;;;;;;;21.33;29.00;102257.91;110315;1275;22307;-49
2023/05/10 06:34:00;;;;;;;3.50;1.70;;;;;;;21.41;28.83;102255.47;110567;1274;22630;-49
2023/05/10 06:36:27;;;;;;;2.00;1.50;;;;;;;21.61;29.40;102255.98;110216;1267;22406;-50
2023/05/10 06:38:54;;;;;;;2.30;1.60;;;;;;;21.86;28.69;102256.98;110385;1271;22791;-49
2023/05/10 06:41:21;;;;;;;1.70;1.50;;;;;;;21.97;27.57;102257.02;110546;1268;22697;-50
2023/05/10 06:43:50;;;;;;;3.20;1.50;;;;;;;21.98;27.55;102256.46;110488;1274;22385;-50
2023/05/10 06:46:17;;;;;;;1.70;1.40;;;;;;;22.03;27.58;102257.81;110535;1268;22814;-49
2023/05/10 06:48:44;;;;;;;2.00;1.60;;;;;;;22.06;27.48;102264.92;110448;1274;22118;-49
2023/05/10 06:51:11;;;;;;;3.50;1.90;;;;;;;22.09;27.93;102261.59;110509;1268;22341;-49
2023/05/10 06:53:38;;;;;;;1.30;1.20;;;;;;;22.19;28.13;102263.44;110442;1269;22885;-49
2023/05/10 06:56:05;;;;;;;2.70;1.70;;;;;;;22.27;28.44;102265.34;110431;1274;23271;-49
2023/05/10 06:58:32;;;;;;;3.50;1.70;;;;;;;22.44;28.66;102266.13;110194;1275;22436;-50
2023/05/10 07:01:03;;;;;;;3.70;1.60;;;;;;;22.67;28.28;102262.23;110592;1266;22231;-49
2023/05/10 07:03:31;;;;;;;;;;;;;;;22.92;27.48;102262.27;110475;1270;22446;-49
2023/05/10 07:06:04;;;;;;;1.70;1.50;;;;;;;23.03;27.00;102262.73;110570;1268;22346;-49
2023/05/10 07:08:31;;;;;;;1.90;1.70;;;;;;;23.23;26.79;102264.39;110274;1271;22970;-49
2023/05/10 07:11:03;;;;;;;2.10;1.60;;;;;;;23.51;26.83;102265.06;110429;1268;22340;-50
2023/05/10 07:13:31;;;;;;;;;;;;;;;23.85;26.35;102265.02;110217;1276;23189;-49
2023/05/10 07:15:58;;;;;;;1.70;1.60;;;;;;;24.09;25.61;102268.89;110532;1274;22377;-51
2023/05/10 07:18:26;;;;;;;2.30;1.80;;;;;;;24.29;25.35;102269.59;110051;1274;22117;-49
2023/05/10 07:20:53;;;;;;;2.50;2.30;;;;;;;24.37;26.71;102274.48;110385;1275;22279;-50
2023/05/10 07:23:20;;;;;;;3.00;2.40;;;;;;;24.35;27.09;102272.83;110433;1269;22313;-50
2023/05/10 07:25:47;;;;;;;4.80;2.50;;;;;;;24.21;27.54;102270.91;110358;1271;22404;-50
2023/05/10 07:28:15;;;;;;;2.20;1.80;;;;;;;24.19;27.72;102272.08;110507;1274;22394;-50
2023/05/10 07:30:42;;;;;;;3.40;2.40;;;;;;;24.26;27.19;102271.70;110513;1268;22456;-50
2023/05/10 07:33:09;;;;;;;2.60;2.00;;;;;;;24.18;27.20;102270.52;110510;1268;22134;-49
2023/05/10 07:35:37;;;;;;;2.40;1.90;;;;;;;24.19;26.77;102272.74;110333;1266;22146;-50
2023/05/10 07:38:04;;;;;;;2.10;1.80;;;;;;;24.12;27.13;102267.48;110539;1268;23125;-50
2023/05/10 07:40:31;;;;;;;2.30;1.60;;;;;;;23.99;26.49;102264.25;109668;1270;1003006;-49
2023/05/10 07:42:58;;;;;;;2.50;1.70;;;;;;;23.81;26.20;102262.59;110545;1274;22145;-49
2023/05/10 07:45:25;;;;;;;2.50;1.90;;;;;;;23.69;26.61;102259.69;110535;1274;22380;-50
2023/05/10 07:47:52;;;;;;;3.60;2.00;;;;;;;23.62;26.67;102260.08;110297;1272;22138;-49
2023/05/10 07:50:20;;;;;;;2.40;2.00;;;;;;;23.55;26.74;102260.60;110347;1272;22851;-49
2023/05/10 07:52:48;;;;;;;2.10;1.70;;;;;;;23.45;26.20;102257.95;110293;1273;22290;-49
2023/05/10 07:55:15;;;;;;;1.90;1.50;;;;;;;23.21;26.12;102258.98;110502;1268;22195;-49
2023/05/10 07:57:42;;;;;;;2.20;1.90;;;;;;;22.85;26.38;102263.14;110502;1268;22203;-49
2023/05/10 08:00:12;;;;;;;1.70;1.60;;;;;;;22.55;27.30;102264.17;110410;1268;22597;-49
2023/05/10 08:02:39;;;;;;;2.10;1.80;;;;;;;22.37;27.11;102267.36;110519;1274;22112;-49
2023/05/10 08:05:07;;;;;;;2.30;1.70;;;;;;;22.27;27.65;102264.14;110436;1275;23029;-49
2023/05/10 08:07:34;;;;;;;2.80;1.90;;;;;;;22.24;28.27;102266.04;110163;1273;22479;-49
2023/05/10 08:10:02;;;;;;;3.50;2.40;;;;;;;22.24;29.00;102266.19;110409;1275;23117;-49
2023/05/10 08:12:30;;;;;;;2.60;1.90;;;;;;;22.27;29.22;102261.47;110575;1268;23009;-50
2023/05/10 08:14:57;;;;;;;6.10;2.00;;;;;;;22.29;29.73;102263.48;110534;1274;22399;-49
2023/05/10 08:17:24;;;;;;;4.80;1.80;;;;;;;22.29;29.63;102263.64;110447;1274;22296;-49
2023/05/10 08:19:51;;;;;;;3.60;2.00;;;;;;;22.31;29.60;102260.70;110191;1267;22152;-50
2023/05/10 08:22:18;;;;;;;3.40;2.00;;;;;;;22.36;29.14;102261.77;110478;1269;22406;-49
2023/05/10 08:24:45;;;;;;;2.50;1.90;;;;;;;22.39;29.00;102261.77;110583;1269;22349;-49
2023/05/10 08:27:12;;;;;;;2.00;1.70;;;;;;;22.37;28.51;102262.05;110439;1268;22115;-49
2023/05/10 08:29:39;;;;;;;2.10;1.70;;;;;;;22.35;28.77;102259.30;110223;1271;22411;-49
2023/05/10 08:32:16;;;;;;;4.50;1.60;;;;;;;22.38;28.21;102256.00;110445;1268;23105;-49
2023/05/10 08:34:43;;;;;;;2.90;1.60;;;;;;;22.40;28.05;102260.85;110458;1268;23090;-49
2023/05/10 08:37:12;;;;;;;1.80;1.70;;;;;;;22.40;28.22;102259.20;110438;1267;22166;-49
2023/05/10 08:39:40;;;;;;;3.30;1.70;;;;;;;22.43;28.32;102262.09;110424;1272;22210;-50
2023/05/10 08:42:08;;;;;;;1.70;1.50;;;;;;;22.41;28.56;102262.73;110513;1267;22327;-49
2023/05/10 08:44:36;;;;;;;3.70;2.00;;;;;;;22.40;28.59;102263.28;110531;1275;23130;-49
2023/05/10 08:47:07;;;;;;;3.80;2.00;;;;;;;22.42;28.64;102266.23;110363;1270;23216;-49
2023/05/10 08:49:34;;;;;;;3.70;1.80;;;;;;;22.44;29.16;102258.52;110441;1275;22131;-49
2023/05/10 08:52:03;;;;;;;3.20;2.40;;;;;;;22.43;29.24;102260.52;110426;1269;22185;-49
2023/05/10 08:54:34;;;;;;;2.40;2.00;;;;;;;22.36;29.93;102259.41;110429;1275;22170;-49
2023/05/10 08:57:01;;;;;;;3.70;2.10;;;;;;;22.28;30.37;102259.25;110430;1268;23210;-49
2023/05/10 08:59:28;;;;;;;2.70;2.00;;;;;;;22.21;30.72;102259.98;110568;1266;22409;-49
2023/05/10 09:01:59;;;;;;;3.30;2.00;;;;;;;22.16;30.77;102258.65;110446;1268;22513;-49
2023/05/10 09:04:26;;;;;;;3.30;2.10;;;;;;;22.14;30.85;102261.00;110329;1270;22129;-49
2023/05/10 09:06:53;;;;;;;4.70;2.30;;;;;;;22.16;30.41;102262.69;110525;1274;22280;-49
2023/05/10 09:09:20;;;;;;;2.30;1.70;;;;;;;22.19;30.44;102260.42;110525;1268;23079;-49
2023/05/10 09:11:47;;;;;;;4.40;1.80;;;;;;;22.23;30.39;102258.80;110426;1275;22372;-49
2023/05/10 09:14:14;;;;;;;2.80;1.90;;;;;;;22.29;30.23;102257.81;110525;1269;22325;-50
2023/05/10 09:16:41;;;;;;;2.20;1.90;;;;;;;22.36;30.06;102254.66;110549;1274;22193;-49
2023/05/10 09:19:09;;;;;;;2.50;2.10;;;;;;;22.44;30.17;102253.92;110404;1273;22128;-49
2023/05/10 09:21:39;;;;;;;2.50;1.50;;;;;;;22.53;30.50;102254.39;110355;1270;23009;-49
2023/05/10 09:24:06;;;;;;;2.20;1.90;;;;;;;22.60;31.18;102251.58;110482;1267;22869;-49
2023/05/10 09:26:35;;;;;;;3.30;1.70;;;;;;;22.70;30.66;102255.21;110442;1275;22137;-49
2023/05/10 09:29:02;;;;;;;3.10;1.90;;;;;;;22.77;30.16;102255.00;110463;1269;22149;-49
2023/05/10 09:31:54;;;;;;;3.10;1.80;;;;;;;22.85;29.83;102257.46;110598;1266;22882;-49
2023/05/10 09:34:30;;;;;;;;;;;;;;;22.97;29.65;102255.27;110570;1274;22457;-49
2023/05/10 09:37:00;;;;;;;2.40;1.60;;;;;;;23.07;29.09;102257.23;110554;1268;22142;-49
2023/05/10 09:39:35;;;;;;;2.90;1.40;;;;;;;23.13;28.70;102258.70;110536;1274;23076;-49
2023/05/10 09:42:06;;;;;;;1.40;1.30;;;;;;;23.14;28.24;102255.45;110532;1273;22284;-49
2023/05/10 09:44:33;;;;;;;1.60;1.50;;;;;;;23.09;28.15;102254.99;110508;1274;22357;-49
2023/05/10 09:47:01;;;;;;;1.90;1.60;;;;;;;23.00;27.99;102257.94;110510;1268;22375;-49
2023/05/10 09:49:28;;;;;;;3.70;2.10;;;;;;;22.88;29.41;102254.30;110544;1268;22401;-49
2023/05/10 09:52:07;;;;;;;4.00;2.00;;;;;;;22.73;30.66;102257.52;110535;1270;22478;-49
2023/05/10 09:54:35;;;;;;;2.40;2.00;;;;;;;22.55;31.59;102252.51;110123;1268;22094;-49
2023/05/10 09:57:03;;;;;;;2.50;2.00;;;;;;;22.43;31.77;102255.35;110505;1262;22129;-49
2023/05/10 09:59:31;;;;;;;4.00;2.10;;;;;;;22.36;31.93;102255.55;110570;1274;22432;-49
2023/05/10 10:01:58;;;;;;;2.60;1.90;;;;;;;22.33;32.19;102255.17;110554;1271;22461;-49
2023/05/10 10:04:25;;;;;;;2.10;1.90;;;;;;;22.32;32.14;102258.02;110415;1270;22697;-49
2023/05/10 10:07:00;;;;;;;1.90;1.70;;;;;;;22.32;32.38;102256.41;110325;1271;22311;-49
2023/05/10 10:09:27;;;;;;;2.70;1.80;;;;;;;22.34;32.21;102258.83;110529;1268;22340;-49
2023/05/10 10:11:55;;;;;;;2.60;1.80;;;;;;;22.37;32.03;102259.75;110270;1274;22371;-49
2023/05/10 10:14:25;;;;;;;2.60;2.00;;;;;;;22.39;31.53;102257.70;110419;1275;22359;-49
2023/05/10 10:16:52;;;;;;;2.60;2.00;;;;;;;22.38;31.00;102257.36;110225;1274;22426;-49
2023/05/10 10:19:34;;;;;;;;;;;;;;;22.36;30.61;102252.19;110533;1274;23052;-49
2023/05/10 10:22:02;;;;;;;3.70;2.10;;;;;;;22.31;30.29;102256.33;109799;1274;1002329;-49
2023/05/10 10:24:29;;;;;;;2.00;1.60;;;;;;;22.23;29.76;102253.50;110247;1275;22226;-49
2023/05/10 10:27:04;;;;;;;2.30;1.80;;;;;;;22.15;29.73;102256.89;110424;1275;22109;-49
2023/05/10 10:29:36;;;;;;;2.80;1.70;;;;;;;22.08;29.39;102258.07;110600;1268;22139;-49
2023/05/10 10:32:09;;;;;;;2.10;1.50;;;;;;;22.00;29.26;102258.30;110426;1269;22176;-49
2023/05/10 10:34:36;;;;;;;2.50;1.80;;;;;;;21.94;29.34;102255.93;110514;1270;22297;-49
2023/05/10 10:37:04;;;;;;;2.60;1.40;;;;;;;21.92;29.49;102255.14;110156;1274;22423;-49
2023/05/10 10:39:31;;;;;;;2.00;1.50;;;;;;;21.92;29.98;102254.08;110527;1275;22145;-49
2023/05/10 10:41:58;;;;;;;1.50;1.40;;;;;;;21.97;29.64;102254.35;110432;1269;22143;-49
2023/05/10 10:44:33;;;;;;;4.00;1.80;;;;;;;22.05;29.16;102254.34;110512;1274;22377;-49
2023/05/10 10:47:22;;;;;;;2.00;1.70;;;;;;;22.15;29.29;102255.30;110554;1270;22849;-49
2023/05/10 10:49:51;;;;;;;2.40;1.50;;;;;;;22.24;29.07;102258.59;110510;1268;22323;-49
2023/05/10 10:52:32;;;;;;;2.10;1.90;;;;;;;22.30;29.06;102260.05;110573;1270;22412;-49
2023/05/10 10:55:11;;;;;;;3.30;1.50;;;;;;;22.39;29.06;102259.65;110544;1270;22126;-49
2023/05/10 10:57:41;;;;;;;4.00;1.60;;;;;;;22.44;28.91;102254.08;110524;1274;22307;-49
2023/05/10 11:00:24;;;;;;;3.10;1.40;;;;;;;22.49;30.32;102253.31;110594;1269;23086;-49
2023/05/10 11:02:52;;;;;;;1.80;1.60;;;;;;;22.54;30.92;102254.16;110435;1271;22110;-49
2023/05/10 11:05:28;;;;;;;1.80;1.60;;;;;;;22.59;30.56;102257.45;110305;1271;23009;-49
2023/05/10 11:07:56;;;;;;;1.60;1.40;;;;;;;22.65;30.58;102255.39;110276;1274;22953;-49
2023/05/10 11:10:23;;;;;;;3.30;1.60;;;;;;;22.74;30.47;102255.71;110402;1274;22344;-49
2023/05/10 11:13:10;;;;;;;1.70;1.60;;;;;;;22.79;29.40;102252.27;110535;1273;22273;-49
2023/05/10 11:15:38;;;;;;;3.30;1.40;;;;;;;22.81;28.52;102256.08;110566;1272;22841;-49
2023/05/10 11:18:20;;;;;;;1.80;1.60;;;;;;;22.75;29.00;102256.70;110463;1268;22204;-49
2023/05/10 11:20:51;;;;;;;2.10;1.80;;;;;;;22.68;29.81;102257.04;110236;1274;22132;-49
2023/05/10 11:23:19;;;;;;;2.50;1.50;;;;;;;22.66;30.51;102255.36;110580;1269;22929;-49
2023/05/10 11:25:47;;;;;;;1.50;1.30;;;;;;;22.66;30.69;102255.90;110275;1274;22536;-49